createdAt,value
2022-12-03T00:02:19.131Z,16.55
2022-12-03T00:04:47.797Z,16.38
2022-12-03T00:07:14.743Z,15.55
2022-12-03T00:09:41.318Z,16.98
2022-12-03T00:12:08.422Z,16.80
2022-12-03T00:14:38.853Z,17.08
2022-12-03T00:17:10.105Z,16.23
2022-12-03T00:19:40.185Z,18.13
2022-12-03T00:22:11.700Z,17.45
2022-12-03T00:24:39.850Z,18.90
2022-12-03T00:27:06.597Z,19.38
2022-12-03T00:29:33.552Z,18.35
2022-12-03T00:32:03.209Z,19.55
2022-12-03T00:34:32.689Z,20.33
2022-12-03T00:37:02.105Z,18.73
2022-12-03T00:39:28.831Z,20.48
2022-12-03T00:41:55.630Z,18.40
2022-12-03T00:44:22.284Z,18.08
2022-12-03T00:46:49.123Z,16.80
2022-12-03T00:49:15.907Z,18.40
2022-12-03T00:51:44.773Z,18.13
2022-12-03T00:54:11.681Z,18.63
2022-12-03T00:56:41.093Z,18.33
2022-12-03T00:59:10.960Z,17.65
2022-12-03T01:01:41.499Z,18.20
2022-12-03T01:04:08.376Z,17.90
2022-12-03T01:06:38.559Z,17.90
2022-12-03T01:09:05.446Z,17.30
2022-12-03T01:11:37.985Z,18.48
2022-12-03T01:14:21.475Z,17.48
2022-12-03T01:16:48.408Z,17.95
2022-12-03T01:19:16.581Z,17.90
2022-12-03T01:21:45.138Z,17.80
2022-12-03T01:24:12.205Z,18.38
2022-12-03T01:26:39.101Z,19.17
2022-12-03T01:29:06.655Z,18.90
2022-12-03T01:31:56.029Z,18.05
2022-12-03T01:34:23.273Z,18.38
2022-12-03T01:36:54.722Z,17.48
2022-12-03T01:39:24.499Z,17.13
2022-12-03T01:41:58.803Z,17.60
2022-12-03T01:44:32.524Z,17.77
2022-12-03T01:47:05.252Z,18.05
2022-12-03T01:49:35.730Z,18.52
2022-12-03T01:52:02.568Z,17.67
2022-12-03T01:54:38.283Z,18.30
2022-12-03T01:57:07.894Z,18.08
2022-12-03T01:59:38.999Z,17.85
2022-12-03T02:02:13.257Z,17.43
2022-12-03T02:04:45.426Z,18.80
2022-12-03T02:09:45.771Z,19.02
2022-12-03T02:12:18.038Z,19.27
2022-12-03T02:14:44.920Z,17.83
2022-12-03T02:17:15.203Z,19.45
2022-12-03T02:19:41.839Z,19.65
2022-12-03T02:22:19.475Z,18.98
2022-12-03T02:24:59.120Z,18.85
2022-12-03T02:27:28.332Z,20.35
2022-12-03T02:29:55.095Z,18.92
2022-12-03T02:32:23.605Z,18.90
2022-12-03T02:34:52.070Z,19.25
2022-12-03T02:37:27.831Z,19.33
2022-12-03T02:39:57.289Z,19.85
2022-12-03T02:42:36.647Z,19.13
2022-12-03T02:45:14.181Z,20.50
2022-12-03T02:47:45.399Z,21.08
2022-12-03T02:50:15.266Z,21.33
2022-12-03T02:52:46.950Z,21.73
2022-12-03T02:55:15.817Z,21.95
2022-12-03T02:57:45.970Z,21.73
2022-12-03T03:00:19.593Z,21.67
2022-12-03T03:02:50.995Z,21.67
2022-12-03T03:05:23.536Z,22.10
2022-12-03T03:07:51.581Z,20.70
2022-12-03T03:10:23.824Z,22.50
2022-12-03T03:12:52.765Z,21.27
2022-12-03T03:15:20.276Z,21.50
2022-12-03T03:17:50.182Z,22.05
2022-12-03T03:20:17.006Z,23.83
2022-12-03T03:22:46.771Z,22.73
2022-12-03T03:25:20.710Z,21.70
2022-12-03T03:27:48.450Z,21.52
2022-12-03T03:30:15.428Z,22.13
2022-12-03T03:32:46.006Z,21.40
2022-12-03T03:35:18.001Z,20.83
2022-12-03T03:37:44.794Z,20.05
2022-12-03T03:40:14.682Z,20.60
2022-12-03T03:42:41.765Z,20.00
2022-12-03T03:45:09.816Z,20.10
2022-12-03T03:47:37.272Z,20.23
2022-12-03T03:50:04.440Z,20.80
2022-12-03T03:52:31.391Z,20.13
2022-12-03T03:54:58.364Z,21.88
2022-12-03T03:57:25.081Z,20.27
2022-12-03T03:59:51.722Z,21.60
2022-12-03T04:02:24.763Z,22.02
2022-12-03T04:04:56.228Z,21.55
2022-12-03T04:07:25.066Z,20.95
2022-12-03T04:09:54.138Z,22.15
2022-12-03T04:12:40.830Z,22.92
2022-12-03T04:15:08.139Z,23.75
2022-12-03T04:17:34.770Z,22.45
2022-12-03T04:20:01.332Z,23.70
2022-12-03T04:22:40.305Z,23.25
2022-12-03T04:25:28.337Z,23.75
2022-12-03T04:28:13.597Z,23.27
2022-12-03T04:30:40.301Z,22.15
2022-12-03T04:33:28.841Z,22.92
2022-12-03T04:35:55.651Z,23.08
2022-12-03T04:38:25.707Z,23.15
2022-12-03T04:41:01.255Z,23.48
2022-12-03T04:43:28.747Z,22.85
2022-12-03T04:46:00.889Z,22.98
2022-12-03T04:50:57.569Z,21.70
2022-12-03T04:53:24.386Z,23.48
2022-12-03T04:55:51.083Z,23.73
2022-12-03T04:58:19.833Z,22.67
2022-12-03T05:00:49.359Z,23.23
2022-12-03T05:03:17.959Z,22.90
2022-12-03T05:05:44.572Z,22.75
2022-12-03T05:08:11.304Z,22.73
2022-12-03T05:10:38.580Z,22.02
2022-12-03T05:13:05.286Z,23.58
2022-12-03T05:15:32.155Z,23.40
2022-12-03T05:17:58.846Z,24.40
2022-12-03T05:20:53.911Z,24.40
2022-12-03T05:23:27.182Z,23.63
2022-12-03T05:25:56.674Z,23.98
2022-12-03T05:28:26.628Z,25.80
2022-12-03T05:30:53.407Z,25.85
2022-12-03T05:33:20.648Z,24.05
2022-12-03T05:35:54.149Z,23.85
2022-12-03T05:38:20.807Z,24.58
2022-12-03T05:40:47.770Z,23.50
2022-12-03T05:43:17.649Z,23.95
2022-12-03T05:45:50.369Z,23.75
2022-12-03T05:48:20.364Z,23.42
2022-12-03T05:50:50.383Z,24.95
2022-12-03T05:53:18.604Z,24.35
2022-12-03T05:55:53.862Z,24.27
2022-12-03T05:58:21.752Z,24.23
2022-12-03T06:00:50.807Z,24.75
2022-12-03T06:03:17.576Z,25.25
2022-12-03T06:05:44.584Z,24.38
2022-12-03T06:08:11.285Z,26.60
2022-12-03T06:10:38.086Z,24.60
2022-12-03T06:13:04.665Z,25.20
2022-12-03T06:15:36.344Z,25.00
2022-12-03T06:18:12.827Z,25.52
2022-12-03T06:20:39.838Z,26.98
2022-12-03T06:23:06.481Z,24.25
2022-12-03T06:25:35.954Z,25.05
2022-12-03T06:28:02.635Z,24.30
2022-12-03T06:30:29.276Z,25.67
2022-12-03T06:32:58.246Z,24.95
2022-12-03T06:35:24.990Z,24.40
2022-12-03T06:37:55.764Z,23.73
2022-12-03T06:40:24.611Z,22.88
2022-12-03T06:42:53.941Z,23.20
2022-12-03T06:45:20.691Z,23.30
2022-12-03T06:47:47.369Z,23.77
2022-12-03T06:50:14.507Z,23.63
2022-12-03T06:52:41.200Z,23.67
2022-12-03T06:55:08.371Z,25.20
2022-12-03T06:57:36.143Z,25.52
2022-12-03T07:00:04.104Z,27.98
2022-12-03T07:02:30.867Z,27.50
2022-12-03T07:04:58.226Z,25.17
2022-12-03T07:07:26.701Z,28.90
2022-12-03T07:09:55.924Z,27.50
2022-12-03T07:12:22.580Z,26.13
2022-12-03T07:14:49.292Z,26.92
2022-12-03T07:17:17.165Z,27.33
2022-12-03T07:19:43.822Z,28.20
2022-12-03T07:22:10.589Z,28.23
2022-12-03T07:24:37.294Z,27.05
2022-12-03T07:27:04.070Z,26.73
2022-12-03T07:29:30.716Z,27.95
2022-12-03T07:31:57.355Z,25.38
2022-12-03T07:34:27.672Z,24.65
2022-12-03T07:36:54.511Z,24.00
2022-12-03T07:39:21.215Z,23.38
2022-12-03T07:41:47.867Z,21.98
2022-12-03T07:44:15.160Z,22.15
2022-12-03T07:46:42.571Z,21.27
2022-12-03T07:49:12.527Z,21.95
2022-12-03T07:51:39.482Z,20.42
2022-12-03T07:54:06.382Z,20.67
2022-12-03T07:56:33.030Z,20.25
2022-12-03T07:58:59.641Z,22.45
2022-12-03T08:01:26.419Z,20.50
2022-12-03T08:03:53.393Z,19.25
2022-12-03T08:06:29.038Z,18.83
2022-12-03T08:08:58.850Z,19.50
2022-12-03T08:11:29.048Z,20.73
2022-12-03T08:13:59.533Z,21.25
2022-12-03T08:16:27.237Z,21.60
2022-12-03T08:18:57.646Z,22.60
2022-12-03T08:21:24.361Z,22.90
2022-12-03T08:23:51.106Z,22.63
2022-12-03T08:26:24.032Z,22.02
2022-12-03T08:28:51.995Z,23.67
2022-12-03T08:31:33.755Z,22.35
2022-12-03T08:34:15.981Z,22.70
2022-12-03T08:36:42.839Z,22.75
2022-12-03T08:39:29.859Z,21.48
2022-12-03T08:42:21.193Z,22.05
2022-12-03T08:44:51.086Z,20.58
2022-12-03T08:47:27.487Z,21.63
2022-12-03T08:50:01.658Z,20.92
2022-12-03T08:52:32.541Z,20.92
2022-12-03T08:55:00.676Z,21.25
2022-12-03T08:57:34.693Z,22.35
2022-12-03T09:00:18.622Z,20.25
2022-12-03T09:02:51.713Z,23.45
2022-12-03T09:05:32.951Z,23.08
2022-12-03T09:08:00.355Z,23.83
2022-12-03T09:10:27.065Z,24.35
2022-12-03T09:12:53.837Z,23.45
2022-12-03T09:15:20.461Z,20.83
2022-12-03T09:17:47.253Z,20.35
2022-12-03T09:20:14.472Z,21.15
2022-12-03T09:22:41.337Z,20.88
2022-12-03T09:25:09.133Z,19.60
2022-12-03T09:27:35.895Z,20.63
2022-12-03T09:30:03.649Z,19.60
2022-12-03T09:32:30.570Z,20.52
2022-12-03T09:34:58.770Z,19.50
2022-12-03T09:37:25.666Z,20.40
2022-12-03T09:39:54.637Z,20.52
2022-12-03T09:42:21.837Z,20.75
2022-12-03T09:44:48.951Z,18.33
2022-12-03T09:47:15.629Z,19.10
2022-12-03T09:49:43.274Z,19.45
2022-12-03T09:52:16.916Z,20.15
2022-12-03T09:54:52.136Z,21.75
2022-12-03T09:57:19.826Z,21.95
2022-12-03T09:59:51.393Z,21.90
2022-12-03T10:02:29.298Z,20.55
2022-12-03T10:04:57.667Z,21.67
2022-12-03T10:07:25.595Z,23.27
2022-12-03T10:09:53.239Z,23.33
2022-12-03T10:12:24.776Z,22.73
2022-12-03T10:14:52.917Z,22.77
2022-12-03T10:17:22.151Z,24.42
2022-12-03T10:19:54.935Z,26.00
2022-12-03T10:22:24.836Z,26.63
2022-12-03T10:25:23.992Z,25.70
2022-12-03T10:28:00.976Z,24.17
2022-12-03T10:30:28.994Z,25.83
2022-12-03T10:33:02.864Z,26.85
2022-12-03T10:35:44.668Z,28.45
2022-12-03T10:38:17.920Z,27.27
2022-12-03T10:40:45.527Z,28.08
2022-12-03T10:43:22.068Z,27.25
2022-12-03T10:46:10.403Z,29.23
2022-12-03T10:48:40.431Z,27.98
2022-12-03T10:51:25.132Z,29.52
2022-12-03T10:53:54.974Z,30.55
2022-12-03T10:56:29.463Z,30.15
2022-12-03T10:58:56.669Z,31.15
2022-12-03T11:01:25.911Z,28.98
2022-12-03T11:04:00.764Z,31.88
2022-12-03T11:06:33.269Z,31.58
2022-12-03T11:09:08.313Z,28.45
2022-12-03T11:11:35.881Z,30.20
2022-12-03T11:14:06.777Z,29.60
2022-12-03T11:16:39.798Z,28.45
2022-12-03T11:19:12.592Z,28.55
2022-12-03T11:22:07.137Z,29.00
2022-12-03T11:24:37.020Z,27.52
2022-12-03T11:27:03.709Z,26.88
2022-12-03T11:29:50.542Z,27.17
2022-12-03T11:32:39.382Z,28.77
2022-12-03T11:35:24.676Z,27.30
2022-12-03T11:37:54.739Z,27.30
2022-12-03T11:40:21.649Z,25.70
2022-12-03T11:42:49.337Z,26.25
2022-12-03T11:45:22.755Z,25.23
2022-12-03T11:48:18.113Z,24.80
2022-12-03T11:50:51.260Z,24.63
2022-12-03T11:53:22.302Z,26.02
2022-12-03T11:56:09.415Z,23.58
2022-12-03T11:58:38.852Z,22.98
2022-12-03T12:01:08.959Z,25.20
2022-12-03T12:03:48.272Z,25.17
2022-12-03T12:06:22.202Z,24.42
2022-12-03T12:08:53.088Z,23.88
2022-12-03T12:11:27.957Z,24.55
2022-12-03T12:14:05.608Z,21.90
2022-12-03T12:16:53.520Z,23.88
2022-12-03T12:19:41.309Z,26.83
2022-12-03T12:22:25.343Z,28.35
2022-12-03T12:25:01.339Z,26.05
2022-12-03T12:27:34.446Z,27.52
2022-12-03T12:30:05.324Z,29.38
2022-12-03T12:32:42.060Z,29.33
2022-12-03T12:35:33.008Z,26.15
2022-12-03T12:38:11.473Z,28.08
2022-12-03T12:40:42.381Z,30.13
2022-12-03T12:43:37.347Z,30.00
2022-12-03T12:49:00.634Z,28.02
2022-12-03T12:51:27.393Z,30.33
2022-12-03T12:53:54.216Z,28.77
2022-12-03T12:56:31.377Z,27.63
2022-12-03T12:59:12.857Z,28.38
2022-12-03T13:01:40.688Z,28.35
2022-12-03T13:04:17.643Z,29.33
2022-12-03T13:06:50.169Z,28.63
2022-12-03T13:09:24.450Z,30.10
2022-12-03T13:11:54.456Z,28.33
2022-12-03T13:14:26.795Z,27.15
2022-12-03T13:19:52.176Z,29.65
2022-12-03T13:22:28.214Z,28.13
2022-12-03T13:25:00.277Z,27.08
2022-12-03T13:27:30.426Z,29.02
2022-12-03T13:30:01.180Z,27.73
2022-12-03T13:32:37.599Z,27.27
2022-12-03T13:35:24.951Z,26.08
2022-12-03T13:37:51.820Z,25.30
2022-12-03T13:40:33.066Z,27.15
2022-12-03T13:43:00.138Z,25.02
2022-12-03T13:45:41.751Z,26.50
2022-12-03T13:48:27.995Z,27.05
2022-12-03T13:50:55.386Z,26.67
2022-12-03T13:53:26.149Z,27.45
2022-12-03T13:56:03.607Z,26.75
2022-12-03T13:58:36.259Z,24.35
2022-12-03T14:01:03.123Z,26.33
2022-12-03T14:03:29.907Z,26.85
2022-12-03T14:05:56.913Z,27.58
2022-12-03T14:08:23.791Z,27.70
2022-12-03T14:10:54.270Z,27.17
2022-12-03T14:13:27.448Z,29.83
2022-12-03T14:15:58.015Z,28.73
2022-12-03T14:18:25.026Z,29.48
2022-12-03T14:20:54.695Z,29.25
2022-12-03T14:23:27.567Z,28.55
2022-12-03T14:25:55.698Z,28.80
2022-12-03T14:28:26.589Z,30.52
2022-12-03T14:30:55.249Z,30.88
2022-12-03T14:33:22.980Z,31.45
2022-12-03T14:35:55.916Z,32.17
2022-12-03T14:38:22.718Z,29.90
2022-12-03T14:40:49.574Z,31.17
2022-12-03T14:43:22.433Z,29.92
2022-12-03T14:45:49.231Z,29.75
2022-12-03T14:48:16.017Z,32.30
2022-12-03T14:50:46.224Z,30.25
2022-12-03T14:53:27.437Z,32.47
2022-12-03T14:55:57.259Z,30.42
2022-12-03T14:58:26.151Z,31.38
2022-12-03T15:00:52.814Z,33.63
2022-12-03T15:03:20.055Z,33.55
2022-12-03T15:05:52.689Z,33.17
2022-12-03T15:08:19.629Z,32.72
2022-12-03T15:10:46.451Z,33.60
2022-12-03T15:13:13.376Z,33.05
2022-12-03T15:15:43.237Z,31.50
2022-12-03T15:18:10.070Z,33.50
2022-12-03T15:20:39.956Z,33.15
2022-12-03T15:23:15.867Z,34.65
2022-12-03T15:25:56.945Z,32.90
2022-12-03T15:28:24.750Z,33.42
2022-12-03T15:30:51.682Z,34.05
2022-12-03T15:33:24.227Z,32.13
2022-12-03T15:35:51.014Z,33.42
2022-12-03T15:38:19.512Z,30.60
2022-12-03T15:40:51.493Z,30.33
2022-12-03T15:43:18.431Z,31.60
2022-12-03T15:45:51.699Z,30.08
2022-12-03T15:48:18.776Z,32.25
2022-12-03T15:50:45.694Z,31.77
2022-12-03T15:53:17.138Z,30.33
2022-12-03T15:55:43.962Z,31.40
2022-12-03T15:58:10.708Z,31.88
2022-12-03T16:00:37.504Z,31.90
2022-12-03T16:03:04.494Z,29.88
2022-12-03T16:05:31.271Z,32.95
2022-12-03T16:07:58.069Z,31.83
2022-12-03T16:10:24.845Z,32.13
2022-12-03T16:12:51.595Z,33.67
2022-12-03T16:15:26.698Z,33.90
2022-12-03T16:17:54.095Z,33.38
2022-12-03T16:20:20.808Z,36.35
2022-12-03T16:22:48.143Z,32.45
2022-12-03T16:25:17.597Z,36.40
2022-12-03T16:27:44.645Z,35.58
2022-12-03T16:30:15.726Z,35.50
2022-12-03T16:32:42.728Z,36.28
2022-12-03T16:35:10.673Z,36.20
2022-12-03T16:37:37.584Z,39.58
2022-12-03T16:40:04.933Z,39.25
2022-12-03T16:42:39.160Z,40.80
2022-12-03T16:45:09.938Z,37.90
2022-12-03T16:47:37.300Z,39.55
2022-12-03T16:50:17.971Z,37.25
2022-12-03T16:52:48.223Z,37.60
2022-12-03T16:55:20.966Z,37.65
2022-12-03T16:57:49.213Z,36.97
2022-12-03T17:02:56.517Z,33.58
2022-12-03T17:05:23.444Z,32.47
2022-12-03T17:07:52.026Z,34.42
2022-12-03T17:10:24.877Z,33.15
2022-12-03T17:15:40.025Z,32.63
2022-12-03T17:18:12.816Z,30.98
2022-12-03T17:20:40.833Z,33.22
2022-12-03T17:23:08.144Z,32.60
2022-12-03T17:25:35.460Z,31.65
2022-12-03T17:28:02.839Z,31.88
2022-12-03T17:30:36.166Z,31.88
2022-12-03T17:33:03.792Z,32.85
2022-12-03T17:35:32.425Z,32.63
2022-12-03T17:38:03.707Z,34.50
2022-12-03T17:40:30.401Z,34.58
2022-12-03T17:42:57.140Z,35.92
2022-12-03T17:45:24.006Z,34.13
2022-12-03T17:47:50.762Z,34.05
2022-12-03T17:50:17.523Z,35.42
2022-12-03T17:52:44.436Z,33.38
2022-12-03T17:55:15.734Z,34.10
2022-12-03T17:57:50.098Z,33.53
2022-12-03T18:00:20.585Z,35.22
2022-12-03T18:02:47.360Z,34.47
2022-12-03T18:05:14.380Z,34.63
2022-12-03T18:07:42.097Z,34.35
2022-12-03T18:10:09.371Z,33.92
2022-12-03T18:12:37.820Z,33.95
2022-12-03T18:15:05.157Z,34.15
2022-12-03T18:17:33.467Z,33.40
2022-12-03T18:20:00.313Z,34.08
2022-12-03T18:22:28.460Z,33.72
2022-12-03T18:24:55.732Z,34.22
2022-12-03T18:27:23.726Z,34.13
2022-12-03T18:29:52.977Z,31.73
2022-12-03T18:32:28.972Z,33.25
2022-12-03T18:34:57.492Z,33.20
2022-12-03T18:37:29.986Z,34.78
2022-12-03T18:39:59.468Z,32.40
2022-12-03T18:42:31.858Z,35.08
2022-12-03T18:44:58.790Z,33.42
2022-12-03T18:47:32.050Z,34.45
2022-12-03T18:50:02.378Z,34.67
2022-12-03T18:52:32.715Z,33.90
2022-12-03T18:55:00.207Z,36.20
2022-12-03T18:57:27.190Z,35.20
2022-12-03T18:59:54.125Z,33.83
2022-12-03T19:05:08.737Z,31.98
2022-12-03T19:07:37.637Z,31.33
2022-12-03T19:10:05.280Z,30.88
2022-12-03T19:12:33.191Z,29.40
2022-12-03T19:14:59.805Z,30.33
2022-12-03T19:17:27.576Z,31.35
2022-12-03T19:19:55.239Z,31.75
2022-12-03T19:22:23.052Z,32.33
2022-12-03T19:24:52.314Z,32.97
2022-12-03T19:27:19.511Z,32.80
2022-12-03T19:29:52.311Z,32.97
2022-12-03T19:32:23.311Z,31.15
2022-12-03T19:34:50.324Z,31.30
2022-12-03T19:37:17.057Z,31.60
2022-12-03T19:39:43.920Z,35.35
2022-12-03T19:42:10.576Z,32.20
2022-12-03T19:44:37.301Z,28.67
2022-12-03T19:47:03.964Z,30.92
2022-12-03T19:49:31.694Z,29.42
2022-12-03T19:51:58.415Z,30.00
2022-12-03T19:54:29.158Z,30.95
2022-12-03T19:56:57.262Z,30.55
2022-12-03T19:59:24.058Z,30.75
2022-12-03T20:01:50.903Z,28.02
2022-12-03T20:04:17.891Z,27.02
2022-12-03T20:06:45.536Z,27.77
2022-12-03T20:09:17.344Z,28.13
2022-12-03T20:11:46.008Z,28.42
2022-12-03T20:14:17.082Z,27.35
2022-12-03T20:16:45.305Z,28.05
2022-12-03T20:19:14.965Z,28.75
2022-12-03T20:21:43.467Z,29.08
2022-12-03T20:24:16.354Z,28.77
2022-12-03T20:26:43.503Z,30.48
2022-12-03T20:29:13.192Z,31.38
2022-12-03T20:31:40.283Z,31.42
2022-12-03T20:34:09.873Z,33.70
2022-12-03T20:36:37.166Z,32.22
2022-12-03T20:39:09.675Z,31.55
2022-12-03T20:41:47.003Z,32.92
2022-12-03T20:44:14.900Z,34.38
2022-12-03T20:46:44.368Z,33.40
2022-12-03T20:49:11.962Z,34.47
2022-12-03T20:51:47.900Z,32.17
2022-12-03T20:54:15.776Z,33.75
2022-12-03T20:56:42.462Z,33.95
2022-12-03T20:59:13.272Z,36.50
2022-12-03T21:01:47.127Z,34.63
2022-12-03T21:04:14.939Z,32.88
2022-12-03T21:06:45.450Z,34.13
2022-12-03T21:09:13.335Z,36.55
2022-12-03T21:11:43.407Z,35.10
2022-12-03T21:14:11.618Z,33.42
2022-12-03T21:17:08.455Z,35.33
2022-12-03T21:19:32.260Z,35.67
2022-12-03T21:22:00.106Z,36.55
2022-12-03T21:24:36.170Z,33.78
2022-12-03T21:27:04.527Z,36.40
2022-12-03T21:29:34.366Z,35.88
2022-12-03T21:32:04.279Z,37.15
2022-12-03T21:34:36.453Z,37.60
2022-12-03T21:37:06.666Z,36.88
2022-12-03T21:39:37.696Z,39.58
2022-12-03T21:42:25.910Z,36.58
2022-12-03T21:44:58.632Z,35.38
2022-12-03T21:47:25.825Z,33.65
2022-12-03T21:49:56.032Z,35.40
2022-12-03T21:52:22.937Z,33.15
2022-12-03T21:54:52.523Z,31.80
2022-12-03T21:57:20.900Z,34.75
2022-12-03T21:59:47.772Z,34.50
2022-12-03T22:02:15.137Z,34.88
2022-12-03T22:04:43.246Z,34.13
2022-12-03T22:07:10.908Z,35.70
2022-12-03T22:09:37.890Z,33.30
2022-12-03T22:12:04.921Z,33.53
2022-12-03T22:14:31.913Z,33.08
2022-12-03T22:16:58.833Z,34.78
2022-12-03T22:19:27.628Z,33.22
2022-12-03T22:21:57.824Z,33.45
2022-12-03T22:24:24.875Z,34.88
2022-12-03T22:26:53.894Z,34.60
2022-12-03T22:29:20.828Z,32.55
2022-12-03T22:31:47.562Z,32.67
2022-12-03T22:34:17.034Z,31.10
2022-12-03T22:36:43.913Z,32.78
2022-12-03T22:39:10.716Z,31.17
2022-12-03T22:41:40.099Z,31.65
2022-12-03T22:44:06.911Z,34.70
2022-12-03T22:46:36.171Z,34.53
2022-12-03T22:49:07.097Z,33.22
2022-12-03T22:51:35.254Z,33.13
2022-12-03T22:54:03.077Z,34.42
2022-12-03T22:56:30.785Z,34.10
2022-12-03T22:58:58.243Z,32.60
2022-12-03T23:01:28.485Z,34.08
2022-12-03T23:04:10.893Z,34.28
2022-12-03T23:06:38.738Z,33.25
2022-12-03T23:09:11.005Z,34.25
2022-12-03T23:11:41.488Z,32.38
2022-12-03T23:14:08.273Z,33.60
2022-12-03T23:16:35.259Z,31.92
2022-12-03T23:19:04.160Z,33.03
2022-12-03T23:21:33.625Z,30.90
2022-12-03T23:24:03.114Z,31.15
2022-12-03T23:26:29.959Z,31.08
2022-12-03T23:28:56.958Z,33.53
2022-12-03T23:31:29.990Z,33.75
2022-12-03T23:33:57.899Z,32.95
2022-12-03T23:36:26.913Z,34.17
2022-12-03T23:38:54.592Z,33.35
2022-12-03T23:41:23.421Z,34.20
2022-12-03T23:43:50.758Z,34.10
2022-12-03T23:46:26.045Z,32.47
2022-12-03T23:48:52.967Z,31.38
2022-12-03T23:51:23.062Z,33.88
2022-12-03T23:53:54.043Z,33.47
2022-12-03T23:56:26.974Z,32.92
2022-12-03T23:58:59.639Z,33.72
